sensor_id;sensor_type;location;lat;lon;timestamp;temperature;humidity
54832;DHT22;40730;53.068;6.572;2023-12-20T00:02:17;6.00;99.90
54832;DHT22;40730;53.068;6.572;2023-12-20T00:04:42;6.00;99.90
54832;DHT22;40730;53.068;6.572;2023-12-20T00:07:08;6.00;99.90
54832;DHT22;40730;53.068;6.572;2023-12-20T00:09:33;5.90;99.90
54832;DHT22;40730;53.068;6.572;2023-12-20T00:11:59;5.90;99.90
54832;DHT22;40730;53.068;6.572;2023-12-20T00:14:25;5.80;99.90
54832;DHT22;40730;53.068;6.572;2023-12-20T00:16:50;5.80;99.90
54832;DHT22;40730;53.068;6.572;2023-12-20T00:19:16;5.70;99.90
54832;DHT22;40730;53.068;6.572;2023-12-20T00:21:41;5.60;99.90
54832;DHT22;40730;53.068;6.572;2023-12-20T00:24:07;5.60;99.90
54832;DHT22;40730;53.068;6.572;2023-12-20T00:26:33;5.60;99.90
54832;DHT22;40730;53.068;6.572;2023-12-20T00:28:59;5.50;99.90
54832;DHT22;40730;53.068;6.572;2023-12-20T00:31:25;5.50;99.90
54832;DHT22;40730;53.068;6.572;2023-12-20T00:33:50;5.50;99.90
54832;DHT22;40730;53.068;6.572;2023-12-20T00:36:16;5.50;99.90
54832;DHT22;40730;53.068;6.572;2023-12-20T00:38:42;5.60;99.90
54832;DHT22;40730;53.068;6.572;2023-12-20T00:41:07;5.60;99.90
54832;DHT22;40730;53.068;6.572;2023-12-20T00:43:33;5.70;99.90
54832;DHT22;40730;53.068;6.572;2023-12-20T00:45:58;5.70;99.90
54832;DHT22;40730;53.068;6.572;2023-12-20T00:48:25;5.80;99.90
54832;DHT22;40730;53.068;6.572;2023-12-20T00:50:52;5.80;99.90
54832;DHT22;40730;53.068;6.572;2023-12-20T00:53:18;5.90;99.90
54832;DHT22;40730;53.068;6.572;2023-12-20T00:55:44;6.00;99.90
54832;DHT22;40730;53.068;6.572;2023-12-20T00:58:10;6.00;99.90
54832;DHT22;40730;53.068;6.572;2023-12-20T01:00:36;6.00;99.90
54832;DHT22;40730;53.068;6.572;2023-12-20T01:03:01;5.90;99.90
54832;DHT22;40730;53.068;6.572;2023-12-20T01:05:27;5.80;99.90
54832;DHT22;40730;53.068;6.572;2023-12-20T01:07:52;5.70;99.90
54832;DHT22;40730;53.068;6.572;2023-12-20T01:10:18;5.70;99.90
54832;DHT22;40730;53.068;6.572;2023-12-20T01:12:44;5.60;99.90
54832;DHT22;40730;53.068;6.572;2023-12-20T01:15:10;5.60;99.90
54832;DHT22;40730;53.068;6.572;2023-12-20T01:17:35;5.60;99.90
54832;DHT22;40730;53.068;6.572;2023-12-20T01:20:01;5.50;99.90
54832;DHT22;40730;53.068;6.572;2023-12-20T01:22:27;5.50;99.90
54832;DHT22;40730;53.068;6.572;2023-12-20T01:24:52;5.50;99.90
54832;DHT22;40730;53.068;6.572;2023-12-20T01:27:18;5.50;99.90
54832;DHT22;40730;53.068;6.572;2023-12-20T01:29:44;5.50;99.90
54832;DHT22;40730;53.068;6.572;2023-12-20T01:32:09;5.40;99.90
54832;DHT22;40730;53.068;6.572;2023-12-20T01:34:35;5.40;99.90
54832;DHT22;40730;53.068;6.572;2023-12-20T01:37:01;5.40;99.90
54832;DHT22;40730;53.068;6.572;2023-12-20T01:39:28;5.40;99.90
54832;DHT22;40730;53.068;6.572;2023-12-20T01:41:53;5.40;99.90
54832;DHT22;40730;53.068;6.572;2023-12-20T01:44:19;5.50;99.90
54832;DHT22;40730;53.068;6.572;2023-12-20T01:46:45;5.50;99.90
54832;DHT22;40730;53.068;6.572;2023-12-20T01:49:11;5.60;99.90
54832;DHT22;40730;53.068;6.572;2023-12-20T01:51:37;5.70;99.90
54832;DHT22;40730;53.068;6.572;2023-12-20T01:54:04;5.70;99.90
54832;DHT22;40730;53.068;6.572;2023-12-20T01:56:31;5.80;99.90
54832;DHT22;40730;53.068;6.572;2023-12-20T01:58:58;5.80;99.90
54832;DHT22;40730;53.068;6.572;2023-12-20T02:01:24;5.90;99.90
54832;DHT22;40730;53.068;6.572;2023-12-20T02:03:50;5.90;99.90
54832;DHT22;40730;53.068;6.572;2023-12-20T02:06:18;6.00;99.90
54832;DHT22;40730;53.068;6.572;2023-12-20T02:08:43;6.00;99.90
54832;DHT22;40730;53.068;6.572;2023-12-20T02:11:10;6.00;99.90
54832;DHT22;40730;53.068;6.572;2023-12-20T02:13:36;6.00;99.90
54832;DHT22;40730;53.068;6.572;2023-12-20T02:16:01;6.20;99.90
54832;DHT22;40730;53.068;6.572;2023-12-20T02:18:28;6.10;99.90
54832;DHT22;40730;53.068;6.572;2023-12-20T02:20:53;6.10;99.90
54832;DHT22;40730;53.068;6.572;2023-12-20T02:23:19;6.10;99.90
54832;DHT22;40730;53.068;6.572;2023-12-20T02:25:45;6.00;99.90
54832;DHT22;40730;53.068;6.572;2023-12-20T02:28:11;6.00;99.90
54832;DHT22;40730;53.068;6.572;2023-12-20T02:30:36;6.00;99.90
54832;DHT22;40730;53.068;6.572;2023-12-20T02:33:03;5.90;99.90
54832;DHT22;40730;53.068;6.572;2023-12-20T02:35:32;5.90;99.90
54832;DHT22;40730;53.068;6.572;2023-12-20T02:37:57;5.90;99.90
54832;DHT22;40730;53.068;6.572;2023-12-20T02:40:23;5.90;99.90
54832;DHT22;40730;53.068;6.572;2023-12-20T02:42:48;5.90;99.90
54832;DHT22;40730;53.068;6.572;2023-12-20T02:45:14;5.90;99.90
54832;DHT22;40730;53.068;6.572;2023-12-20T02:47:39;5.90;99.90
54832;DHT22;40730;53.068;6.572;2023-12-20T02:50:05;6.00;99.90
54832;DHT22;40730;53.068;6.572;2023-12-20T02:52:31;6.00;99.90
54832;DHT22;40730;53.068;6.572;2023-12-20T02:54:57;5.70;99.90
54832;DHT22;40730;53.068;6.572;2023-12-20T02:57:22;6.10;99.90
54832;DHT22;40730;53.068;6.572;2023-12-20T02:59:48;6.20;99.90
54832;DHT22;40730;53.068;6.572;2023-12-20T03:02:13;6.30;99.90
54832;DHT22;40730;53.068;6.572;2023-12-20T03:04:39;6.20;99.90
54832;DHT22;40730;53.068;6.572;2023-12-20T03:07:05;6.20;99.90
54832;DHT22;40730;53.068;6.572;2023-12-20T03:09:30;6.20;99.90
54832;DHT22;40730;53.068;6.572;2023-12-20T03:11:56;6.20;99.90
54832;DHT22;40730;53.068;6.572;2023-12-20T03:14:21;6.20;99.90
54832;DHT22;40730;53.068;6.572;2023-12-20T03:16:49;6.30;99.90
54832;DHT22;40730;53.068;6.572;2023-12-20T03:19:16;6.40;99.90
54832;DHT22;40730;53.068;6.572;2023-12-20T03:21:41;6.30;99.90
54832;DHT22;40730;53.068;6.572;2023-12-20T03:24:07;6.30;99.90
54832;DHT22;40730;53.068;6.572;2023-12-20T03:26:32;6.30;99.90
54832;DHT22;40730;53.068;6.572;2023-12-20T03:28:58;6.30;99.90
54832;DHT22;40730;53.068;6.572;2023-12-20T03:31:24;6.30;99.90
54832;DHT22;40730;53.068;6.572;2023-12-20T03:33:49;6.30;99.90
54832;DHT22;40730;53.068;6.572;2023-12-20T03:36:16;6.30;99.90
54832;DHT22;40730;53.068;6.572;2023-12-20T03:38:42;6.50;99.90
54832;DHT22;40730;53.068;6.572;2023-12-20T03:41:07;6.60;99.90
54832;DHT22;40730;53.068;6.572;2023-12-20T03:43:33;6.60;99.90
54832;DHT22;40730;53.068;6.572;2023-12-20T03:45:58;6.60;99.90
54832;DHT22;40730;53.068;6.572;2023-12-20T03:48:25;6.60;99.90
54832;DHT22;40730;53.068;6.572;2023-12-20T03:50:51;6.60;99.90
54832;DHT22;40730;53.068;6.572;2023-12-20T03:53:16;6.60;99.90
54832;DHT22;40730;53.068;6.572;2023-12-20T03:55:42;6.60;99.90
54832;DHT22;40730;53.068;6.572;2023-12-20T03:58:07;6.60;99.90
54832;DHT22;40730;53.068;6.572;2023-12-20T04:00:33;6.60;99.90
54832;DHT22;40730;53.068;6.572;2023-12-20T04:02:59;6.60;99.90
54832;DHT22;40730;53.068;6.572;2023-12-20T04:05:24;6.60;99.90
54832;DHT22;40730;53.068;6.572;2023-12-20T04:07:50;6.70;99.90
54832;DHT22;40730;53.068;6.572;2023-12-20T04:10:16;6.70;99.90
54832;DHT22;40730;53.068;6.572;2023-12-20T04:12:41;6.80;99.90
54832;DHT22;40730;53.068;6.572;2023-12-20T04:15:07;6.80;99.90
54832;DHT22;40730;53.068;6.572;2023-12-20T04:17:35;6.80;99.90
54832;DHT22;40730;53.068;6.572;2023-12-20T04:20:01;6.80;99.90
54832;DHT22;40730;53.068;6.572;2023-12-20T04:22:27;6.80;99.90
54832;DHT22;40730;53.068;6.572;2023-12-20T04:24:53;6.90;99.90
54832;DHT22;40730;53.068;6.572;2023-12-20T04:27:19;6.80;99.90
54832;DHT22;40730;53.068;6.572;2023-12-20T04:29:44;6.80;99.90
54832;DHT22;40730;53.068;6.572;2023-12-20T04:32:10;6.80;99.90
54832;DHT22;40730;53.068;6.572;2023-12-20T04:34:36;6.80;99.90
54832;DHT22;40730;53.068;6.572;2023-12-20T04:37:02;6.90;99.90
54832;DHT22;40730;53.068;6.572;2023-12-20T04:39:27;6.90;99.90
54832;DHT22;40730;53.068;6.572;2023-12-20T04:41:53;6.90;99.90
54832;DHT22;40730;53.068;6.572;2023-12-20T04:44:18;6.90;99.90
54832;DHT22;40730;53.068;6.572;2023-12-20T04:46:44;6.90;99.90
54832;DHT22;40730;53.068;6.572;2023-12-20T04:49:10;6.90;99.90
54832;DHT22;40730;53.068;6.572;2023-12-20T04:51:35;6.90;99.90
54832;DHT22;40730;53.068;6.572;2023-12-20T04:54:02;6.90;99.90
54832;DHT22;40730;53.068;6.572;2023-12-20T04:56:28;7.10;99.90
54832;DHT22;40730;53.068;6.572;2023-12-20T04:58:53;6.90;99.90
54832;DHT22;40730;53.068;6.572;2023-12-20T05:01:19;6.90;99.90
54832;DHT22;40730;53.068;6.572;2023-12-20T05:03:44;7.00;99.90
54832;DHT22;40730;53.068;6.572;2023-12-20T05:06:10;7.00;99.90
54832;DHT22;40730;53.068;6.572;2023-12-20T05:08:36;7.00;99.90
54832;DHT22;40730;53.068;6.572;2023-12-20T05:11:02;7.00;99.90
54832;DHT22;40730;53.068;6.572;2023-12-20T05:13:28;7.00;99.90
54832;DHT22;40730;53.068;6.572;2023-12-20T05:15:53;7.10;99.90
54832;DHT22;40730;53.068;6.572;2023-12-20T05:18:20;7.10;99.90
54832;DHT22;40730;53.068;6.572;2023-12-20T05:20:46;7.20;99.90
54832;DHT22;40730;53.068;6.572;2023-12-20T05:23:11;7.20;99.90
54832;DHT22;40730;53.068;6.572;2023-12-20T05:25:38;7.20;99.90
54832;DHT22;40730;53.068;6.572;2023-12-20T05:28:04;7.30;99.90
54832;DHT22;40730;53.068;6.572;2023-12-20T05:30:30;7.30;99.90
54832;DHT22;40730;53.068;6.572;2023-12-20T05:32:56;7.30;99.90
54832;DHT22;40730;53.068;6.572;2023-12-20T05:35:21;7.30;99.90
54832;DHT22;40730;53.068;6.572;2023-12-20T05:37:49;7.20;99.90
54832;DHT22;40730;53.068;6.572;2023-12-20T05:40:15;7.30;99.90
54832;DHT22;40730;53.068;6.572;2023-12-20T05:42:40;7.30;99.90
54832;DHT22;40730;53.068;6.572;2023-12-20T05:45:06;7.30;99.90
54832;DHT22;40730;53.068;6.572;2023-12-20T05:47:32;7.20;99.90
54832;DHT22;40730;53.068;6.572;2023-12-20T05:49:57;7.20;99.90
54832;DHT22;40730;53.068;6.572;2023-12-20T05:52:23;7.20;99.90
54832;DHT22;40730;53.068;6.572;2023-12-20T05:54:49;7.30;99.90
54832;DHT22;40730;53.068;6.572;2023-12-20T05:57:14;7.30;99.90
54832;DHT22;40730;53.068;6.572;2023-12-20T05:59:40;7.30;99.90
54832;DHT22;40730;53.068;6.572;2023-12-20T06:02:06;7.30;99.90
54832;DHT22;40730;53.068;6.572;2023-12-20T06:04:32;7.30;99.90
54832;DHT22;40730;53.068;6.572;2023-12-20T06:06:57;7.30;99.90
54832;DHT22;40730;53.068;6.572;2023-12-20T06:09:23;7.30;99.90
54832;DHT22;40730;53.068;6.572;2023-12-20T06:11:49;7.30;99.90
54832;DHT22;40730;53.068;6.572;2023-12-20T06:14:15;7.40;99.90
54832;DHT22;40730;53.068;6.572;2023-12-20T06:16:40;7.40;99.90
54832;DHT22;40730;53.068;6.572;2023-12-20T06:19:06;7.40;99.90
54832;DHT22;40730;53.068;6.572;2023-12-20T06:21:31;7.40;99.90
54832;DHT22;40730;53.068;6.572;2023-12-20T06:23:59;7.40;99.90
54832;DHT22;40730;53.068;6.572;2023-12-20T06:26:24;7.40;99.90
54832;DHT22;40730;53.068;6.572;2023-12-20T06:28:50;7.40;99.90
54832;DHT22;40730;53.068;6.572;2023-12-20T06:31:16;7.40;99.90
54832;DHT22;40730;53.068;6.572;2023-12-20T06:33:43;7.40;99.90
54832;DHT22;40730;53.068;6.572;2023-12-20T06:36:11;7.40;99.90
54832;DHT22;40730;53.068;6.572;2023-12-20T06:38:37;7.40;99.90
54832;DHT22;40730;53.068;6.572;2023-12-20T06:41:03;7.40;99.90
54832;DHT22;40730;53.068;6.572;2023-12-20T06:43:28;7.50;99.90
54832;DHT22;40730;53.068;6.572;2023-12-20T06:45:54;7.40;99.90
54832;DHT22;40730;53.068;6.572;2023-12-20T06:48:20;7.50;99.90
54832;DHT22;40730;53.068;6.572;2023-12-20T06:50:46;7.40;99.90
54832;DHT22;40730;53.068;6.572;2023-12-20T06:53:14;7.40;99.90
54832;DHT22;40730;53.068;6.572;2023-12-20T06:55:40;7.40;99.90
54832;DHT22;40730;53.068;6.572;2023-12-20T06:58:05;7.50;99.90
54832;DHT22;40730;53.068;6.572;2023-12-20T07:00:32;7.50;99.90
54832;DHT22;40730;53.068;6.572;2023-12-20T07:02:58;7.50;99.90
54832;DHT22;40730;53.068;6.572;2023-12-20T07:05:24;7.50;99.90
54832;DHT22;40730;53.068;6.572;2023-12-20T07:07:50;7.50;99.90
54832;DHT22;40730;53.068;6.572;2023-12-20T07:10:16;7.60;99.90
54832;DHT22;40730;53.068;6.572;2023-12-20T07:12:41;7.60;99.90
54832;DHT22;40730;53.068;6.572;2023-12-20T07:15:07;7.60;99.90
54832;DHT22;40730;53.068;6.572;2023-12-20T07:17:33;7.60;99.90
54832;DHT22;40730;53.068;6.572;2023-12-20T07:20:00;7.70;99.90
54832;DHT22;40730;53.068;6.572;2023-12-20T07:22:29;7.60;99.90
54832;DHT22;40730;53.068;6.572;2023-12-20T07:24:57;7.70;99.90
54832;DHT22;40730;53.068;6.572;2023-12-20T07:27:23;7.70;99.90
54832;DHT22;40730;53.068;6.572;2023-12-20T07:29:49;7.80;99.90
54832;DHT22;40730;53.068;6.572;2023-12-20T07:32:14;7.70;99.90
54832;DHT22;40730;53.068;6.572;2023-12-20T07:34:40;7.80;99.90
54832;DHT22;40730;53.068;6.572;2023-12-20T07:37:05;7.80;99.90
54832;DHT22;40730;53.068;6.572;2023-12-20T07:39:31;7.80;99.90
54832;DHT22;40730;53.068;6.572;2023-12-20T07:41:56;7.90;99.90
54832;DHT22;40730;53.068;6.572;2023-12-20T07:44:22;7.80;99.90
54832;DHT22;40730;53.068;6.572;2023-12-20T07:46:48;7.80;99.90
54832;DHT22;40730;53.068;6.572;2023-12-20T07:49:14;7.80;99.90
54832;DHT22;40730;53.068;6.572;2023-12-20T07:51:39;7.80;99.90
54832;DHT22;40730;53.068;6.572;2023-12-20T07:54:05;7.90;99.90
54832;DHT22;40730;53.068;6.572;2023-12-20T07:56:30;7.80;99.90
54832;DHT22;40730;53.068;6.572;2023-12-20T07:58:56;7.80;99.90
54832;DHT22;40730;53.068;6.572;2023-12-20T08:01:22;7.80;99.90
54832;DHT22;40730;53.068;6.572;2023-12-20T08:03:49;7.90;99.90
54832;DHT22;40730;53.068;6.572;2023-12-20T08:06:14;7.90;99.90
54832;DHT22;40730;53.068;6.572;2023-12-20T08:08:43;7.90;99.90
54832;DHT22;40730;53.068;6.572;2023-12-20T08:11:09;7.90;99.90
54832;DHT22;40730;53.068;6.572;2023-12-20T08:13:34;7.90;99.90
54832;DHT22;40730;53.068;6.572;2023-12-20T08:16:00;7.90;99.90
54832;DHT22;40730;53.068;6.572;2023-12-20T08:18:27;7.90;99.90
54832;DHT22;40730;53.068;6.572;2023-12-20T08:20:53;8.00;99.90
54832;DHT22;40730;53.068;6.572;2023-12-20T08:23:19;8.00;99.90
54832;DHT22;40730;53.068;6.572;2023-12-20T08:25:46;8.00;99.90
54832;DHT22;40730;53.068;6.572;2023-12-20T08:28:12;8.00;99.90
54832;DHT22;40730;53.068;6.572;2023-12-20T08:30:38;8.10;99.90
54832;DHT22;40730;53.068;6.572;2023-12-20T08:33:04;8.10;99.90
54832;DHT22;40730;53.068;6.572;2023-12-20T08:35:29;8.10;99.90
54832;DHT22;40730;53.068;6.572;2023-12-20T08:37:55;8.00;99.90
54832;DHT22;40730;53.068;6.572;2023-12-20T08:40:21;8.00;99.90
54832;DHT22;40730;53.068;6.572;2023-12-20T08:42:47;8.00;99.90
54832;DHT22;40730;53.068;6.572;2023-12-20T08:45:12;7.90;99.90
54832;DHT22;40730;53.068;6.572;2023-12-20T08:47:38;7.80;99.90
54832;DHT22;40730;53.068;6.572;2023-12-20T08:50:04;7.80;99.90
54832;DHT22;40730;53.068;6.572;2023-12-20T08:52:29;7.70;99.90
54832;DHT22;40730;53.068;6.572;2023-12-20T08:54:55;7.80;99.90
54832;DHT22;40730;53.068;6.572;2023-12-20T08:57:21;7.70;99.90
54832;DHT22;40730;53.068;6.572;2023-12-20T08:59:49;7.70;99.90
54832;DHT22;40730;53.068;6.572;2023-12-20T09:02:15;7.80;99.90
54832;DHT22;40730;53.068;6.572;2023-12-20T09:04:41;7.80;99.90
54832;DHT22;40730;53.068;6.572;2023-12-20T09:07:07;7.90;99.90
54832;DHT22;40730;53.068;6.572;2023-12-20T09:09:33;7.90;99.90
54832;DHT22;40730;53.068;6.572;2023-12-20T09:11:59;8.00;99.90
54832;DHT22;40730;53.068;6.572;2023-12-20T09:14:24;8.10;99.90
54832;DHT22;40730;53.068;6.572;2023-12-20T09:16:50;8.10;99.90
54832;DHT22;40730;53.068;6.572;2023-12-20T09:19:17;8.20;99.90
54832;DHT22;40730;53.068;6.572;2023-12-20T09:21:43;8.20;99.90
54832;DHT22;40730;53.068;6.572;2023-12-20T09:24:08;7.40;99.90
54832;DHT22;40730;53.068;6.572;2023-12-20T09:26:34;6.70;99.90
54832;DHT22;40730;53.068;6.572;2023-12-20T09:29:00;6.40;99.90
54832;DHT22;40730;53.068;6.572;2023-12-20T09:31:26;6.10;99.90
54832;DHT22;40730;53.068;6.572;2023-12-20T09:33:52;6.00;99.90
54832;DHT22;40730;53.068;6.572;2023-12-20T09:36:18;5.90;99.90
54832;DHT22;40730;53.068;6.572;2023-12-20T09:38:44;5.80;99.90
54832;DHT22;40730;53.068;6.572;2023-12-20T09:41:09;5.80;99.90
54832;DHT22;40730;53.068;6.572;2023-12-20T09:43:37;5.80;99.90
54832;DHT22;40730;53.068;6.572;2023-12-20T09:46:05;5.80;99.90
54832;DHT22;40730;53.068;6.572;2023-12-20T09:48:33;5.90;99.90
54832;DHT22;40730;53.068;6.572;2023-12-20T09:50:59;6.00;99.90
54832;DHT22;40730;53.068;6.572;2023-12-20T09:53:25;6.10;99.90
54832;DHT22;40730;53.068;6.572;2023-12-20T09:55:58;6.10;99.90
54832;DHT22;40730;53.068;6.572;2023-12-20T09:58:24;6.10;99.90
54832;DHT22;40730;53.068;6.572;2023-12-20T10:00:50;6.10;99.90
54832;DHT22;40730;53.068;6.572;2023-12-20T10:03:17;6.10;99.90
54832;DHT22;40730;53.068;6.572;2023-12-20T10:05:44;6.10;99.90
54832;DHT22;40730;53.068;6.572;2023-12-20T10:08:10;6.20;99.90
54832;DHT22;40730;53.068;6.572;2023-12-20T10:10:35;6.20;99.90
54832;DHT22;40730;53.068;6.572;2023-12-20T10:13:06;6.30;99.90
54832;DHT22;40730;53.068;6.572;2023-12-20T10:15:33;6.20;99.90
54832;DHT22;40730;53.068;6.572;2023-12-20T10:17:58;6.30;99.90
54832;DHT22;40730;53.068;6.572;2023-12-20T10:20:24;6.30;99.90
54832;DHT22;40730;53.068;6.572;2023-12-20T10:22:50;6.30;99.90
54832;DHT22;40730;53.068;6.572;2023-12-20T10:25:19;6.40;99.90
54832;DHT22;40730;53.068;6.572;2023-12-20T10:27:45;6.40;99.90
54832;DHT22;40730;53.068;6.572;2023-12-20T10:30:11;6.40;99.90
54832;DHT22;40730;53.068;6.572;2023-12-20T10:32:36;6.30;99.90
54832;DHT22;40730;53.068;6.572;2023-12-20T10:35:02;6.30;99.90
54832;DHT22;40730;53.068;6.572;2023-12-20T10:37:28;6.30;99.90
54832;DHT22;40730;53.068;6.572;2023-12-20T10:39:54;6.40;99.90
54832;DHT22;40730;53.068;6.572;2023-12-20T10:42:26;6.50;99.90
54832;DHT22;40730;53.068;6.572;2023-12-20T10:44:52;6.50;99.90
54832;DHT22;40730;53.068;6.572;2023-12-20T10:47:19;6.50;99.90
54832;DHT22;40730;53.068;6.572;2023-12-20T10:49:46;6.60;99.90
54832;DHT22;40730;53.068;6.572;2023-12-20T10:52:13;6.70;99.90
54832;DHT22;40730;53.068;6.572;2023-12-20T10:54:41;6.70;99.90
54832;DHT22;40730;53.068;6.572;2023-12-20T10:57:07;6.80;99.90
54832;DHT22;40730;53.068;6.572;2023-12-20T10:59:35;6.80;99.90
54832;DHT22;40730;53.068;6.572;2023-12-20T11:02:03;6.90;99.90
54832;DHT22;40730;53.068;6.572;2023-12-20T11:04:58;7.00;99.90
54832;DHT22;40730;53.068;6.572;2023-12-20T11:07:38;7.00;99.90
54832;DHT22;40730;53.068;6.572;2023-12-20T11:10:25;7.00;99.90
54832;DHT22;40730;53.068;6.572;2023-12-20T11:12:56;7.00;99.90
54832;DHT22;40730;53.068;6.572;2023-12-20T11:15:24;7.00;99.90
54832;DHT22;40730;53.068;6.572;2023-12-20T11:17:57;7.00;99.90
54832;DHT22;40730;53.068;6.572;2023-12-20T11:20:35;7.00;99.90
54832;DHT22;40730;53.068;6.572;2023-12-20T11:23:01;7.00;99.90
54832;DHT22;40730;53.068;6.572;2023-12-20T11:25:26;7.10;99.90
54832;DHT22;40730;53.068;6.572;2023-12-20T11:28:10;7.10;99.90
54832;DHT22;40730;53.068;6.572;2023-12-20T11:30:54;7.10;99.90
54832;DHT22;40730;53.068;6.572;2023-12-20T11:33:24;7.10;99.90
54832;DHT22;40730;53.068;6.572;2023-12-20T11:35:51;7.20;99.90
54832;DHT22;40730;53.068;6.572;2023-12-20T11:38:19;7.20;99.90
54832;DHT22;40730;53.068;6.572;2023-12-20T11:40:48;7.30;99.90
54832;DHT22;40730;53.068;6.572;2023-12-20T11:43:30;7.20;99.90
54832;DHT22;40730;53.068;6.572;2023-12-20T11:46:05;7.30;99.90
54832;DHT22;40730;53.068;6.572;2023-12-20T11:48:32;7.40;99.90
54832;DHT22;40730;53.068;6.572;2023-12-20T11:50:58;7.50;99.90
54832;DHT22;40730;53.068;6.572;2023-12-20T11:53:24;7.60;99.90
54832;DHT22;40730;53.068;6.572;2023-12-20T11:55:50;7.90;99.90
54832;DHT22;40730;53.068;6.572;2023-12-20T11:58:16;8.50;99.90
54832;DHT22;40730;53.068;6.572;2023-12-20T12:00:42;8.70;99.90
54832;DHT22;40730;53.068;6.572;2023-12-20T12:03:09;8.60;99.90
54832;DHT22;40730;53.068;6.572;2023-12-20T12:05:35;8.40;99.90
54832;DHT22;40730;53.068;6.572;2023-12-20T12:08:02;8.30;99.90
54832;DHT22;40730;53.068;6.572;2023-12-20T12:10:28;8.10;99.90
54832;DHT22;40730;53.068;6.572;2023-12-20T12:12:54;8.00;99.90
54832;DHT22;40730;53.068;6.572;2023-12-20T12:15:20;7.90;99.90
54832;DHT22;40730;53.068;6.572;2023-12-20T12:17:53;7.80;99.90
54832;DHT22;40730;53.068;6.572;2023-12-20T12:20:20;7.80;99.90
54832;DHT22;40730;53.068;6.572;2023-12-20T12:22:45;7.70;99.90
54832;DHT22;40730;53.068;6.572;2023-12-20T12:25:13;7.60;99.90
54832;DHT22;40730;53.068;6.572;2023-12-20T12:27:41;7.60;99.90
54832;DHT22;40730;53.068;6.572;2023-12-20T12:30:08;7.50;99.90
54832;DHT22;40730;53.068;6.572;2023-12-20T12:32:35;7.50;99.90
54832;DHT22;40730;53.068;6.572;2023-12-20T12:35:03;7.50;99.90
54832;DHT22;40730;53.068;6.572;2023-12-20T12:37:29;7.50;99.90
54832;DHT22;40730;53.068;6.572;2023-12-20T12:39:54;7.40;99.90
54832;DHT22;40730;53.068;6.572;2023-12-20T12:42:20;7.50;99.90
54832;DHT22;40730;53.068;6.572;2023-12-20T12:44:46;7.40;99.90
54832;DHT22;40730;53.068;6.572;2023-12-20T12:47:12;7.40;99.90
54832;DHT22;40730;53.068;6.572;2023-12-20T12:49:40;7.40;99.90
54832;DHT22;40730;53.068;6.572;2023-12-20T12:52:05;7.30;99.90
54832;DHT22;40730;53.068;6.572;2023-12-20T12:54:31;7.30;99.90
54832;DHT22;40730;53.068;6.572;2023-12-20T12:56:56;7.30;99.90
54832;DHT22;40730;53.068;6.572;2023-12-20T12:59:23;7.30;99.90
54832;DHT22;40730;53.068;6.572;2023-12-20T13:01:49;7.30;99.90
54832;DHT22;40730;53.068;6.572;2023-12-20T13:04:14;7.40;99.90
54832;DHT22;40730;53.068;6.572;2023-12-20T13:06:40;7.30;99.90
54832;DHT22;40730;53.068;6.572;2023-12-20T13:09:07;7.40;99.90
54832;DHT22;40730;53.068;6.572;2023-12-20T13:11:35;7.40;99.90
54832;DHT22;40730;53.068;6.572;2023-12-20T13:14:00;7.40;99.90
54832;DHT22;40730;53.068;6.572;2023-12-20T13:16:26;7.40;99.90
54832;DHT22;40730;53.068;6.572;2023-12-20T13:18:52;7.30;99.90
54832;DHT22;40730;53.068;6.572;2023-12-20T13:21:18;7.30;99.90
54832;DHT22;40730;53.068;6.572;2023-12-20T13:23:44;7.30;99.90
54832;DHT22;40730;53.068;6.572;2023-12-20T13:26:10;7.20;99.90
54832;DHT22;40730;53.068;6.572;2023-12-20T13:28:35;7.10;99.90
54832;DHT22;40730;53.068;6.572;2023-12-20T13:31:01;7.10;99.90
54832;DHT22;40730;53.068;6.572;2023-12-20T13:33:27;7.00;99.90
54832;DHT22;40730;53.068;6.572;2023-12-20T13:35:52;6.90;99.90
54832;DHT22;40730;53.068;6.572;2023-12-20T13:38:18;6.90;99.90
54832;DHT22;40730;53.068;6.572;2023-12-20T13:40:44;6.80;99.90
54832;DHT22;40730;53.068;6.572;2023-12-20T13:43:09;6.70;99.90
54832;DHT22;40730;53.068;6.572;2023-12-20T13:45:38;6.70;99.90
54832;DHT22;40730;53.068;6.572;2023-12-20T13:48:03;6.60;99.90
54832;DHT22;40730;53.068;6.572;2023-12-20T13:50:29;6.60;99.90
54832;DHT22;40730;53.068;6.572;2023-12-20T13:52:55;6.60;99.90
54832;DHT22;40730;53.068;6.572;2023-12-20T13:55:21;6.50;99.90
54832;DHT22;40730;53.068;6.572;2023-12-20T13:57:51;6.50;99.90
54832;DHT22;40730;53.068;6.572;2023-12-20T14:00:16;6.70;99.90
54832;DHT22;40730;53.068;6.572;2023-12-20T14:02:42;6.40;99.90
54832;DHT22;40730;53.068;6.572;2023-12-20T14:05:09;6.40;99.90
54832;DHT22;40730;53.068;6.572;2023-12-20T14:07:35;6.40;99.90
54832;DHT22;40730;53.068;6.572;2023-12-20T14:10:01;6.40;99.90
54832;DHT22;40730;53.068;6.572;2023-12-20T14:12:27;6.40;99.90
54832;DHT22;40730;53.068;6.572;2023-12-20T14:14:52;6.50;99.90
54832;DHT22;40730;53.068;6.572;2023-12-20T14:17:20;6.50;99.90
54832;DHT22;40730;53.068;6.572;2023-12-20T14:19:49;6.50;99.90
54832;DHT22;40730;53.068;6.572;2023-12-20T14:22:15;6.40;99.90
54832;DHT22;40730;53.068;6.572;2023-12-20T14:24:42;6.40;99.90
54832;DHT22;40730;53.068;6.572;2023-12-20T14:27:08;6.40;99.90
54832;DHT22;40730;53.068;6.572;2023-12-20T14:29:35;6.30;99.90
54832;DHT22;40730;53.068;6.572;2023-12-20T14:32:00;6.30;99.90
54832;DHT22;40730;53.068;6.572;2023-12-20T14:34:28;6.30;99.90
54832;DHT22;40730;53.068;6.572;2023-12-20T14:36:54;6.30;99.90
54832;DHT22;40730;53.068;6.572;2023-12-20T14:39:19;6.20;99.90
54832;DHT22;40730;53.068;6.572;2023-12-20T14:41:45;6.20;99.90
54832;DHT22;40730;53.068;6.572;2023-12-20T14:44:10;6.20;99.90
54832;DHT22;40730;53.068;6.572;2023-12-20T14:46:36;6.30;99.90
54832;DHT22;40730;53.068;6.572;2023-12-20T14:49:03;6.30;99.90
54832;DHT22;40730;53.068;6.572;2023-12-20T14:51:30;6.20;99.90
54832;DHT22;40730;53.068;6.572;2023-12-20T14:53:55;6.20;99.90
54832;DHT22;40730;53.068;6.572;2023-12-20T14:56:23;6.20;99.90
54832;DHT22;40730;53.068;6.572;2023-12-20T14:58:49;6.20;99.90
54832;DHT22;40730;53.068;6.572;2023-12-20T15:01:14;6.20;99.90
54832;DHT22;40730;53.068;6.572;2023-12-20T15:03:40;6.20;99.90
54832;DHT22;40730;53.068;6.572;2023-12-20T15:06:06;6.20;99.90
54832;DHT22;40730;53.068;6.572;2023-12-20T15:08:32;6.20;99.90
54832;DHT22;40730;53.068;6.572;2023-12-20T15:10:58;6.20;99.90
54832;DHT22;40730;53.068;6.572;2023-12-20T15:13:24;6.20;99.90
54832;DHT22;40730;53.068;6.572;2023-12-20T15:15:50;6.10;99.90
54832;DHT22;40730;53.068;6.572;2023-12-20T15:18:15;6.20;99.90
54832;DHT22;40730;53.068;6.572;2023-12-20T15:20:41;6.20;99.90
54832;DHT22;40730;53.068;6.572;2023-12-20T15:23:09;6.20;99.90
54832;DHT22;40730;53.068;6.572;2023-12-20T15:25:35;6.10;99.90
54832;DHT22;40730;53.068;6.572;2023-12-20T15:28:01;6.20;99.90
54832;DHT22;40730;53.068;6.572;2023-12-20T15:30:28;6.10;99.90
54832;DHT22;40730;53.068;6.572;2023-12-20T15:32:55;6.10;99.90
54832;DHT22;40730;53.068;6.572;2023-12-20T15:35:21;6.10;99.90
54832;DHT22;40730;53.068;6.572;2023-12-20T15:37:47;6.10;99.90
54832;DHT22;40730;53.068;6.572;2023-12-20T15:40:13;6.10;99.90